Time;durP1;ratioP1;P1;durP2;ratioP2;P2;SDS_P1;SDS_P2;PMS_P1;PMS_P2;Temp;Humidity;BMP_temperature;BMP_pressure;BME280_temperature;BME280_humidity;BME280_pressure;Samples;Min_cycle;Max_cycle;Signal;HPM_P1;HPM_P2
2022/07/25 03:48:30;;;;;;;6.32;5.07;;;;;;;23.78;48.77;100641.84;5639664;31;30705;-58
2022/07/25 03:51:33;;;;;;;6.53;5.10;;;;;;;23.78;48.77;100641.84;5643631;31;33310;-58
2022/07/25 03:54:36;;;;;;;6.18;4.85;;;;;;;23.32;46.90;100644.44;5643162;31;33842;-57
2022/07/25 03:57:38;;;;;;;8.05;4.93;;;;;;;23.37;46.99;100641.41;5643575;31;34246;-58
2022/07/25 04:00:40;;;;;;;7.18;4.75;;;;;;;23.50;46.41;100638.53;5643472;31;33506;-58
2022/07/25 04:03:43;;;;;;;7.55;4.32;;;;;;;23.51;46.40;100635.44;5643414;31;33569;-58
2022/07/25 04:06:46;;;;;;;7.18;5.10;;;;;;;23.59;46.29;100644.56;5643250;31;33723;-58
2022/07/25 04:09:48;;;;;;;7.72;4.82;;;;;;;23.74;45.46;100648.38;5643295;31;34228;-58
2022/07/25 04:12:50;;;;;;;7.75;5.05;;;;;;;23.85;45.08;100644.69;5643342;31;33551;-58
2022/07/25 04:15:53;;;;;;;6.70;4.65;;;;;;;23.77;45.32;100645.72;5643338;31;33509;-58
2022/07/25 04:18:56;;;;;;;6.55;5.00;;;;;;;23.91;45.01;100647.94;5643205;31;33665;-58
2022/07/25 04:21:58;;;;;;;7.78;4.78;;;;;;;23.91;45.00;100654.19;5643384;31;33577;-58
2022/07/25 04:25:00;;;;;;;11.15;4.70;;;;;;;23.95;45.08;100650.75;5642787;31;33573;-58
2022/07/25 04:28:03;;;;;;;6.47;4.62;;;;;;;24.03;44.84;100650.47;5642987;31;34376;-58
2022/07/25 04:31:05;;;;;;;6.45;4.82;;;;;;;24.01;44.70;100662.97;5642745;31;33632;-58
2022/07/25 04:34:07;;;;;;;8.43;4.68;;;;;;;24.01;45.41;100655.53;5642965;31;33659;-58
2022/07/25 04:37:11;;;;;;;6.07;4.87;;;;;;;24.04;48.71;100652.09;5642794;31;34191;-58
2022/07/25 04:40:13;;;;;;;8.13;4.80;;;;;;;24.06;45.06;100651.72;5643288;31;35122;-58
2022/07/25 04:43:15;;;;;;;7.45;4.70;;;;;;;24.15;44.60;100658.53;5642638;31;34343;-58
2022/07/25 04:46:22;;;;;;;8.07;5.05;;;;;;;24.19;46.53;100655.06;5642993;31;33554;-58
2022/07/25 04:49:24;;;;;;;5.90;4.50;;;;;;;24.21;45.53;100647.28;5642511;31;33670;-58
2022/07/25 04:52:26;;;;;;;8.20;5.22;;;;;;;24.41;49.65;100650.75;5642762;31;33562;-58
2022/07/25 04:55:29;;;;;;;8.48;4.90;;;;;;;24.47;43.58;100646.53;5642726;31;33367;-58
2022/07/25 04:58:31;;;;;;;9.93;4.95;;;;;;;24.57;44.45;100652.19;5635127;31;33621;-58
2022/07/25 05:01:35;;;;;;;6.12;4.43;;;;;;;24.74;43.47;100650.87;5629651;31;33748;-58
2022/07/25 05:04:37;;;;;;;7.15;4.60;;;;;;;24.64;44.71;100648.75;5628501;31;34231;-58
2022/07/25 05:07:46;;;;;;;8.40;4.72;;;;;;;24.60;44.74;100653.38;5628795;31;33597;-58
2022/07/25 05:10:48;;;;;;;6.45;4.53;;;;;;;24.58;44.69;100656.50;5628791;31;34256;-58
2022/07/25 05:13:50;;;;;;;6.30;4.97;;;;;;;24.69;43.58;100653.91;5629387;31;34259;-58
2022/07/25 05:16:53;;;;;;;7.90;4.68;;;;;;;24.77;45.04;100649.34;5629077;31;33937;-58
2022/07/25 05:19:56;;;;;;;7.03;4.50;;;;;;;24.77;44.73;100646.59;5629450;31;33606;-58
2022/07/25 05:22:59;;;;;;;6.70;3.90;;;;;;;24.87;44.21;100653.38;5629345;31;33593;-58
2022/07/25 05:26:01;;;;;;;5.60;3.70;;;;;;;25.03;44.14;100662.22;5628993;31;34266;-58
2022/07/25 05:29:06;;;;;;;5.03;3.97;;;;;;;25.14;42.94;100657.72;5615808;31;33614;-58
2022/07/25 05:32:08;;;;;;;5.72;4.15;;;;;;;25.20;43.34;100653.47;5609438;31;33596;-58
2022/07/25 05:35:11;;;;;;;9.07;4.75;;;;;;;25.46;42.08;100646.31;5609114;31;33611;-58
2022/07/25 05:38:13;;;;;;;9.43;4.50;;;;;;;25.59;40.66;100646.84;5609239;31;34197;-58
2022/07/25 05:41:15;;;;;;;12.50;4.62;;;;;;;25.69;41.49;100646.16;5609177;31;33547;-58
2022/07/25 05:44:17;;;;;;;6.18;4.62;;;;;;;25.89;41.67;100642.09;5625890;31;33676;-58
2022/07/25 05:47:20;;;;;;;10.77;4.93;;;;;;;26.02;39.29;100642.59;5628690;31;33591;-58
2022/07/25 05:50:22;;;;;;;8.98;4.32;;;;;;;26.12;39.57;100632.88;5628761;31;33671;-58
2022/07/25 05:53:25;;;;;;;8.98;4.32;;;;;;;26.17;39.44;100638.03;5628613;31;33578;-58
2022/07/25 05:56:28;;;;;;;23.98;5.72;;;;;;;26.28;40.10;100636.16;5628305;31;33397;-58
2022/07/25 05:59:31;;;;;;;25.90;5.85;;;;;;;26.49;42.17;100635.56;5628454;31;33763;-58
2022/07/25 06:02:33;;;;;;;11.88;4.55;;;;;;;26.63;39.30;100645.88;5628176;31;34218;-58
2022/07/25 06:05:36;;;;;;;9.43;4.07;;;;;;;26.64;40.62;100637.22;5628108;31;33623;-58
2022/07/25 06:08:38;;;;;;;21.10;5.28;;;;;;;26.79;40.82;100640.03;5628139;31;34005;-58
2022/07/25 06:11:41;;;;;;;6.97;4.37;;;;;;;26.77;38.61;100637.69;5627512;31;33685;-58
2022/07/25 06:14:59;;;;;;;20.25;5.03;;;;;;;26.78;37.74;100632.97;5628427;31;33662;-58
2022/07/25 06:18:01;;;;;;;9.32;4.85;;;;;;;26.83;38.72;100640.87;5628571;31;33613;-58
2022/07/25 06:21:05;;;;;;;9.30;4.62;;;;;;;26.82;37.74;100634.59;5628450;31;33706;-58
2022/07/25 06:24:08;;;;;;;7.95;4.60;;;;;;;26.88;37.50;100641.28;5628337;31;33715;-58
2022/07/25 06:27:10;;;;;;;7.60;4.57;;;;;;;26.79;37.71;100637.28;5628054;31;33895;-58
2022/07/25 06:30:16;;;;;;;;;;;;;;;26.92;37.79;100633.03;5628660;31;33586;-58
2022/07/25 06:33:21;;;;;;;8.07;4.55;;;;;;;26.91;38.31;100639.72;5628435;31;33656;-58
2022/07/25 06:36:23;;;;;;;10.73;4.40;;;;;;;27.06;37.28;100632.34;5628061;31;34351;-58
2022/07/25 06:39:33;;;;;;;11.25;4.70;;;;;;;27.14;38.31;100632.00;5628573;31;33555;-58
2022/07/25 06:42:40;;;;;;;7.60;3.87;;;;;;;27.24;37.27;100629.69;5628359;31;33646;-58
2022/07/25 06:45:46;;;;;;;6.12;3.95;;;;;;;27.29;36.84;100626.56;5628444;31;33794;-58
2022/07/25 06:48:48;;;;;;;9.23;3.97;;;;;;;27.29;36.67;100615.56;5628334;31;34482;-58
2022/07/25 06:51:50;;;;;;;5.87;4.00;;;;;;;27.46;39.99;100619.53;5628398;31;33673;-58
2022/07/25 06:54:53;;;;;;;10.25;4.20;;;;;;;27.53;36.80;100612.06;5628287;31;33665;-58
2022/07/25 06:57:55;;;;;;;6.20;4.20;;;;;;;27.58;36.33;100617.22;5628191;31;33582;-58
2022/07/25 07:00:59;;;;;;;6.75;3.90;;;;;;;27.79;35.46;100610.19;5628139;31;33575;-58
2022/07/25 07:04:02;;;;;;;6.47;4.12;;;;;;;27.73;35.99;100618.00;5628168;31;34185;-58
2022/07/25 07:07:06;;;;;;;5.87;4.20;;;;;;;27.74;35.69;100611.31;5613924;31;33693;-59
2022/07/25 07:10:08;;;;;;;6.35;3.97;;;;;;;27.79;37.30;100599.16;5627959;31;33750;-58
2022/07/25 07:13:12;;;;;;;5.25;3.95;;;;;;;27.82;37.70;100604.69;5628002;31;33605;-58
2022/07/25 07:16:14;;;;;;;8.43;3.93;;;;;;;27.89;35.47;100601.16;5627952;31;33658;-58
2022/07/25 07:19:17;;;;;;;7.72;4.43;;;;;;;27.98;35.39;100596.03;5627968;31;33787;-58
2022/07/25 07:22:19;;;;;;;11.57;3.83;;;;;;;27.93;35.02;100595.63;5627347;31;34297;-58
2022/07/25 07:25:23;;;;;;;5.62;4.05;;;;;;;28.01;36.47;100606.28;5627491;31;33689;-58
2022/07/25 07:28:29;;;;;;;8.38;4.50;;;;;;;27.94;36.64;100597.97;5627967;31;34214;-58
2022/07/25 07:31:31;;;;;;;14.05;4.82;;;;;;;28.00;35.72;100598.38;5627580;31;34400;-58
2022/07/25 07:34:33;;;;;;;7.35;4.30;;;;;;;28.13;34.52;100602.31;5627173;31;33673;-58
2022/07/25 07:37:36;;;;;;;5.78;3.80;;;;;;;28.13;37.75;100602.31;5627293;31;33764;-58
2022/07/25 07:40:44;;;;;;;8.05;4.00;;;;;;;28.20;35.94;100604.28;5627642;31;33567;-58
2022/07/25 07:43:46;;;;;;;8.27;4.07;;;;;;;28.19;34.85;100597.97;5627700;31;33657;-58
2022/07/25 07:46:49;;;;;;;8.27;3.90;;;;;;;28.22;34.06;100601.94;5627336;31;33239;-58
2022/07/25 07:49:51;;;;;;;11.38;4.30;;;;;;;28.32;33.99;100601.91;5627345;31;33579;-59
2022/07/25 07:52:55;;;;;;;12.95;4.43;;;;;;;28.28;36.19;100598.38;5626803;31;34296;-58
2022/07/25 07:55:57;;;;;;;7.00;4.22;;;;;;;28.42;34.59;100596.81;5627356;31;33707;-58
2022/07/25 07:59:00;;;;;;;7.07;4.10;;;;;;;28.53;36.08;100597.56;5627270;31;33678;-58
2022/07/25 08:02:02;;;;;;;6.30;4.25;;;;;;;28.57;33.79;100590.84;5627361;31;33634;-58
2022/07/25 08:05:05;;;;;;;4.87;4.40;;;;;;;28.69;33.49;100595.16;5626928;31;33635;-58
2022/07/25 08:08:09;;;;;;;9.50;4.10;;;;;;;28.85;33.85;100593.94;5627084;31;34446;-58
2022/07/25 08:11:12;;;;;;;15.40;3.93;;;;;;;28.67;33.79;100596.75;5626954;31;33602;-58
2022/07/25 08:14:14;;;;;;;8.02;4.28;;;;;;;28.68;34.30;100588.09;5626549;31;33531;-58
2022/07/25 08:17:16;;;;;;;9.90;3.90;;;;;;;28.80;35.31;100592.34;5626845;31;33706;-58
2022/07/25 08:20:21;;;;;;;6.15;4.25;;;;;;;28.82;33.65;100591.97;5626799;31;34223;-58
2022/07/25 08:23:39;;;;;;;6.78;4.97;;;;;;;28.81;34.59;100588.44;5611851;31;33561;-58
2022/07/25 08:26:41;;;;;;;6.95;4.72;;;;;;;28.84;35.63;100584.88;5606649;31;33809;-58
2022/07/25 08:29:43;;;;;;;12.35;5.65;;;;;;;28.86;35.05;100579.72;5606729;31;34366;-58
2022/07/25 08:33:02;;;;;;;10.27;4.68;;;;;;;28.78;33.75;100578.97;5606682;31;33163;-58
2022/07/25 08:36:05;;;;;;;14.93;4.93;;;;;;;28.69;36.38;100564.81;5609122;31;34290;-59
2022/07/25 08:39:07;;;;;;;6.03;4.07;;;;;;;28.81;34.48;100571.88;5609478;31;34319;-58
2022/07/25 08:42:09;;;;;;;6.65;4.07;;;;;;;28.73;32.63;100568.34;5609593;31;33595;-59
2022/07/25 08:45:15;;;;;;;5.53;4.18;;;;;;;28.77;33.74;100568.31;5609205;31;33719;-59
2022/07/25 08:48:21;;;;;;;5.50;3.97;;;;;;;28.78;32.33;100561.66;5609069;31;34364;-58
2022/07/25 08:51:24;;;;;;;6.75;4.53;;;;;;;28.82;33.47;100561.63;5607953;31;34087;-58
2022/07/25 08:54:26;;;;;;;6.32;4.40;;;;;;;28.86;34.11;100560.41;5608503;31;33672;-58
2022/07/25 08:57:28;;;;;;;6.35;4.30;;;;;;;28.83;33.98;100555.69;5609034;31;33718;-58
2022/07/25 09:00:32;;;;;;;10.00;4.45;;;;;;;28.90;33.81;100558.41;5609217;31;33754;-58
2022/07/25 09:03:35;;;;;;;13.00;4.62;;;;;;;28.99;32.69;100553.25;5609061;31;33665;-58
2022/07/25 09:06:49;;;;;;;8.88;4.53;;;;;;;28.92;33.91;100544.25;5608739;31;33740;-58
2022/07/25 09:09:51;;;;;;;8.95;4.82;;;;;;;28.85;33.22;100549.78;5608540;31;33419;-58
2022/07/25 09:12:55;;;;;;;7.40;4.50;;;;;;;28.79;33.40;100550.19;5608961;31;33705;-58
2022/07/25 09:15:59;;;;;;;60.60;8.02;;;;;;;28.71;33.85;100550.62;5609220;31;33634;-58
2022/07/25 09:19:11;;;;;;;12.57;4.70;;;;;;;28.63;34.17;100538.03;5617400;31;34416;-58
2022/07/25 09:22:13;;;;;;;7.55;4.57;;;;;;;28.65;34.08;100533.72;5627862;31;34284;-58
2022/07/25 09:25:29;;;;;;;6.87;4.40;;;;;;;28.71;32.92;100521.06;5629097;31;34318;-58
2022/07/25 09:28:39;;;;;;;8.40;4.45;;;;;;;28.75;33.43;100532.09;5628937;31;33740;-59
2022/07/25 09:31:42;;;;;;;7.87;4.68;;;;;;;28.84;33.35;100528.87;5628914;31;33755;-58
2022/07/25 09:34:46;;;;;;;12.57;4.62;;;;;;;28.97;33.51;100533.56;5628543;31;33239;-58
2022/07/25 09:37:48;;;;;;;55.30;7.25;;;;;;;29.07;32.94;100528.41;5628717;31;34474;-58
2022/07/25 09:40:55;;;;;;;9.32;5.12;;;;;;;29.17;32.61;100524.78;5629188;31;33814;-58
2022/07/25 09:43:57;;;;;;;9.70;5.00;;;;;;;29.23;35.11;100520.41;5628340;31;34309;-59
2022/07/25 09:47:12;;;;;;;5.65;4.60;;;;;;;29.18;33.37;100515.34;5628407;31;34244;-58
2022/07/25 09:50:15;;;;;;;7.47;4.70;;;;;;;29.12;33.11;100516.97;5628207;31;33796;-58
2022/07/25 09:53:18;;;;;;;8.70;4.37;;;;;;;29.16;31.32;100512.97;5628796;31;34523;-58
2022/07/25 09:56:21;;;;;;;5.72;4.20;;;;;;;29.16;33.24;100509.44;5628413;31;33778;-58
2022/07/25 09:59:23;;;;;;;9.02;4.43;;;;;;;29.21;32.77;100512.56;5628690;31;33201;-58
2022/07/25 10:02:32;;;;;;;8.00;4.53;;;;;;;29.18;31.10;100501.53;5628561;31;34446;-59
2022/07/25 10:06:05;;;;;;;10.05;4.62;;;;;;;29.15;30.49;100499.59;5628557;31;33648;-58
2022/07/25 10:09:14;;;;;;;7.55;4.32;;;;;;;29.18;31.29;100491.28;5628589;31;33645;-56
2022/07/25 10:12:21;;;;;;;7.30;4.78;;;;;;;29.27;30.38;100485.28;5628730;31;33774;-56
2022/07/25 10:15:24;;;;;;;11.50;4.65;;;;;;;29.35;30.56;100486.81;5627739;31;33303;-56
2022/07/25 10:18:28;;;;;;;6.50;4.72;;;;;;;29.39;31.31;100484.81;5627899;31;33722;-56
2022/07/25 10:21:31;;;;;;;5.75;4.53;;;;;;;29.46;30.65;100478.44;5628316;31;33750;-56
2022/07/25 10:24:36;;;;;;;7.87;4.65;;;;;;;29.45;30.09;100469.38;5613655;31;33599;-56
2022/07/25 10:27:51;;;;;;;8.25;4.50;;;;;;;29.38;31.03;100466.69;5628358;31;33637;-56
2022/07/25 10:30:57;;;;;;;6.45;4.72;;;;;;;29.38;30.32;100463.91;5628126;31;34386;-56
2022/07/25 10:34:02;;;;;;;6.00;4.35;;;;;;;29.45;30.63;100458.34;5628361;31;33881;-56
2022/07/25 10:37:12;;;;;;;6.45;5.03;;;;;;;29.50;30.93;100457.09;5628426;31;34284;-56
2022/07/25 10:40:25;;;;;;;6.03;3.90;;;;;;;29.56;30.12;100449.94;5627423;31;33766;-56
2022/07/25 10:43:28;;;;;;;6.45;4.35;;;;;;;29.47;28.78;100444.91;5627889;31;34481;-55
2022/07/25 10:46:33;;;;;;;6.32;4.40;;;;;;;29.51;30.20;100444.88;5613509;31;34470;-56
2022/07/25 10:49:40;;;;;;;9.20;4.43;;;;;;;29.61;29.54;100443.25;5628409;31;33610;-56
2022/07/25 10:53:06;;;;;;;6.90;4.20;;;;;;;29.71;30.40;100437.63;5628135;31;33726;-56
2022/07/25 10:56:13;;;;;;;4.93;4.00;;;;;;;29.78;29.51;100436.75;5627223;31;33909;-56
2022/07/25 10:59:45;;;;;;;8.40;4.37;;;;;;;29.84;28.46;100426.84;5628076;31;34867;-56
2022/07/25 11:02:49;;;;;;;6.72;4.45;;;;;;;29.84;28.78;100417.75;5628458;31;33651;-56
2022/07/25 11:05:53;;;;;;;5.75;4.25;;;;;;;29.81;28.75;100419.38;5628322;31;33676;-56
2022/07/25 11:08:58;;;;;;;8.20;4.03;;;;;;;29.92;28.39;100420.03;5627944;31;33721;-56
2022/07/25 11:12:04;;;;;;;7.60;4.55;;;;;;;29.91;28.47;100407.41;5628186;31;33661;-56
2022/07/25 11:15:07;;;;;;;6.45;4.00;;;;;;;29.96;29.37;100411.69;5628144;31;34453;-56
2022/07/25 11:18:17;;;;;;;4.82;3.87;;;;;;;30.04;29.42;100409.66;5628202;31;33588;-56
2022/07/25 11:21:20;;;;;;;6.20;4.20;;;;;;;30.03;28.86;100399.78;5628160;31;33774;-56
2022/07/25 11:24:43;;;;;;;6.30;4.35;;;;;;;30.14;28.71;100394.91;5628287;31;33666;-56
2022/07/25 11:27:54;;;;;;;6.35;3.80;;;;;;;30.13;27.27;100385.84;5628178;31;33690;-56
2022/07/25 11:31:02;;;;;;;5.20;3.85;;;;;;;30.15;26.82;100379.87;5627944;31;33738;-56
2022/07/25 11:34:05;;;;;;;6.82;3.90;;;;;;;30.16;27.23;100378.69;5613257;31;33571;-56
2022/07/25 11:37:09;;;;;;;5.62;4.10;;;;;;;30.09;27.66;100376.00;5613587;31;33692;-56
2022/07/25 11:40:15;;;;;;;7.82;4.37;;;;;;;30.09;28.92;100368.50;5628035;31;33851;-56
2022/07/25 11:43:20;;;;;;;;;;;;;;;30.11;28.03;100368.09;5627857;31;33687;-56
2022/07/25 11:46:23;;;;;;;6.32;4.05;;;;;;;30.14;28.18;100362.50;5627149;31;34235;-56
2022/07/25 11:49:25;;;;;;;6.30;3.53;;;;;;;30.20;25.69;100351.81;5627201;31;33640;-56
2022/07/25 11:52:33;;;;;;;4.93;3.80;;;;;;;30.21;27.01;100347.84;5627595;31;33612;-56
2022/07/25 11:55:44;;;;;;;4.45;3.78;;;;;;;30.22;27.89;100354.16;5613250;31;34045;-56
2022/07/25 11:58:57;;;;;;;6.87;3.80;;;;;;;30.25;25.95;100345.81;5626906;31;33480;-56
2022/07/25 12:01:59;;;;;;;5.82;3.92;;;;;;;30.31;25.96;100346.91;5627142;31;34318;-56
2022/07/25 12:05:07;;;;;;;7.80;3.90;;;;;;;30.33;26.21;100335.44;5612540;31;33611;-56
2022/07/25 12:08:11;;;;;;;8.48;3.97;;;;;;;30.33;26.95;100333.47;5616371;31;33688;-56
2022/07/25 12:11:19;;;;;;;5.47;3.70;;;;;;;30.49;26.87;100332.81;5611946;31;33651;-56
2022/07/25 12:14:21;;;;;;;9.95;4.07;;;;;;;30.48;27.38;100334.03;5610325;31;34267;-56
2022/07/25 12:17:23;;;;;;;6.93;4.00;;;;;;;30.49;27.45;100327.28;5609972;31;33680;-56
2022/07/25 12:20:32;;;;;;;6.40;3.50;;;;;;;30.49;25.92;100320.97;5610067;31;33817;-56
2022/07/25 12:23:34;;;;;;;4.43;3.70;;;;;;;30.54;26.26;100313.00;5610092;31;33633;-56
2022/07/25 12:26:36;;;;;;;6.78;3.58;;;;;;;30.57;25.81;100305.84;5609990;31;33741;-56
2022/07/25 12:29:38;;;;;;;6.43;3.62;;;;;;;30.66;25.72;100303.31;5610240;31;33757;-56
2022/07/25 12:32:41;;;;;;;5.03;3.20;;;;;;;30.76;26.01;100298.81;5609589;31;33776;-56
2022/07/25 12:35:43;;;;;;;6.28;3.78;;;;;;;30.81;25.88;100298.37;5610016;31;33527;-56
2022/07/25 12:38:46;;;;;;;4.93;3.22;;;;;;;30.89;26.27;100289.56;5609677;31;33705;-56
2022/07/25 12:41:48;;;;;;;6.62;3.60;;;;;;;30.84;26.45;100284.47;5610057;31;33613;-56
2022/07/25 12:44:50;;;;;;;5.03;3.25;;;;;;;30.69;25.77;100272.03;5609963;31;33693;-56
2022/07/25 12:47:52;;;;;;;4.93;3.50;;;;;;;30.72;26.06;100271.22;5609756;31;33810;-56
2022/07/25 12:50:55;;;;;;;5.60;3.45;;;;;;;30.73;25.55;100272.00;5609852;31;34332;-56
2022/07/25 12:53:57;;;;;;;5.62;3.62;;;;;;;30.78;24.87;100264.03;5609781;31;34290;-56
2022/07/25 12:56:59;;;;;;;7.40;3.67;;;;;;;30.80;25.42;100258.88;5609839;31;33651;-56
2022/07/25 13:00:08;;;;;;;5.07;3.72;;;;;;;30.86;24.50;100256.38;5609702;31;33614;-56
2022/07/25 13:03:12;;;;;;;5.30;3.28;;;;;;;30.85;24.87;100243.75;5609341;31;33725;-56
2022/07/25 13:06:14;;;;;;;7.13;3.70;;;;;;;30.87;25.48;100242.12;5609088;31;34419;-56
2022/07/25 13:09:16;;;;;;;5.03;3.40;;;;;;;30.94;25.14;100243.22;5609699;31;34315;-56
2022/07/25 13:12:19;;;;;;;6.62;3.90;;;;;;;30.94;24.64;100232.91;5609759;31;34573;-56
2022/07/25 13:15:26;;;;;;;5.70;3.35;;;;;;;30.91;25.32;100227.44;5609615;31;33893;-56
2022/07/25 13:18:29;;;;;;;5.60;3.40;;;;;;;30.96;25.92;100224.97;5609241;31;34321;-56
2022/07/25 13:21:31;;;;;;;7.93;3.85;;;;;;;31.01;25.91;100220.94;5609632;31;33444;-56
2022/07/25 13:24:33;;;;;;;6.00;3.30;;;;;;;31.00;24.19;100219.38;5609580;31;34403;-56
2022/07/25 13:27:36;;;;;;;10.40;3.67;;;;;;;31.03;23.94;100219.31;5609360;31;34348;-56
2022/07/25 13:30:39;;;;;;;6.12;3.42;;;;;;;31.09;23.57;100211.28;5608925;31;33695;-56
2022/07/25 13:33:41;;;;;;;5.47;3.70;;;;;;;31.14;23.79;100213.56;5609472;31;34259;-56
2022/07/25 13:36:43;;;;;;;5.75;3.08;;;;;;;31.17;23.55;100206.41;5609328;31;34411;-56
2022/07/25 13:39:46;;;;;;;9.00;3.58;;;;;;;31.16;23.55;100197.31;5609247;31;33764;-56
2022/07/25 13:42:48;;;;;;;5.10;3.30;;;;;;;31.16;25.74;100199.28;5609016;31;33517;-56
2022/07/25 13:45:50;;;;;;;9.38;3.45;;;;;;;31.22;25.40;100186.50;5608823;31;34225;-56
2022/07/25 13:48:54;;;;;;;5.65;3.35;;;;;;;31.13;24.10;100190.63;5609233;31;33759;-56
2022/07/25 13:51:56;;;;;;;11.30;4.18;;;;;;;31.10;24.09;100190.72;5609158;31;33642;-56
2022/07/25 13:54:58;;;;;;;5.00;3.15;;;;;;;31.11;23.64;100186.72;5609251;31;33776;-56
2022/07/25 13:58:00;;;;;;;5.45;3.58;;;;;;;31.17;24.50;100179.50;5608922;31;33734;-56
2022/07/25 14:01:03;;;;;;;14.43;3.90;;;;;;;31.18;24.63;100161.66;5608708;31;33624;-57
2022/07/25 14:04:05;;;;;;;7.35;3.17;;;;;;;31.23;24.84;100154.84;5609140;31;34434;-56
2022/07/25 14:07:07;;;;;;;8.25;3.37;;;;;;;31.33;26.02;100171.28;5609185;31;33789;-56
2022/07/25 14:10:10;;;;;;;6.82;3.25;;;;;;;31.36;25.09;100166.88;5609187;31;34308;-56
2022/07/25 14:13:13;;;;;;;9.95;3.47;;;;;;;31.28;25.38;100163.44;5608751;31;33814;-56
2022/07/25 14:16:17;;;;;;;12.55;3.65;;;;;;;31.30;24.82;100146.41;5607243;31;33668;-56
2022/07/25 14:19:20;;;;;;;7.57;3.58;;;;;;;31.29;26.39;100144.81;5608810;31;33756;-56
2022/07/25 14:22:22;;;;;;;4.80;3.22;;;;;;;31.19;23.27;100143.81;5608918;31;34384;-56
2022/07/25 14:25:26;;;;;;;7.55;3.42;;;;;;;31.12;24.83;100139.22;5609006;31;33680;-56
2022/07/25 14:28:28;;;;;;;10.60;3.92;;;;;;;31.11;24.68;100125.81;5608757;31;34373;-56
2022/07/25 14:31:31;;;;;;;8.43;3.80;;;;;;;31.11;24.46;100126.59;5607027;31;34389;-56
2022/07/25 14:34:35;;;;;;;6.53;3.30;;;;;;;31.04;24.00;100125.97;5608702;31;33862;-56
2022/07/25 14:37:37;;;;;;;7.95;3.80;;;;;;;31.04;24.00;100123.19;5608137;31;33865;-56
2022/07/25 14:40:39;;;;;;;14.30;3.78;;;;;;;31.12;26.98;100119.06;5608025;31;33823;-56
2022/07/25 14:43:42;;;;;;;13.95;4.22;;;;;;;31.25;24.06;100111.66;5608501;31;33842;-56
2022/07/25 14:46:44;;;;;;;7.25;4.07;;;;;;;31.44;25.92;100109.34;5607688;31;33653;-56
2022/07/25 14:49:47;;;;;;;5.85;3.45;;;;;;;31.37;24.11;100120.56;5607945;31;33801;-56
2022/07/25 14:52:49;;;;;;;8.80;3.53;;;;;;;31.40;23.51;100094.78;5608134;31;34411;-56
2022/07/25 14:55:51;;;;;;;6.62;3.55;;;;;;;31.38;23.58;100094.44;5608206;31;34452;-57
2022/07/25 14:58:54;;;;;;;4.95;3.60;;;;;;;31.31;23.97;100089.78;5607455;31;34281;-56
